Time;durP1;ratioP1;P1;durP2;ratioP2;P2;SDS_P1;SDS_P2;PMS_P1;PMS_P2;Temp;Humidity;BMP_temperature;BMP_pressure;BME280_temperature;BME280_humidity;BME280_pressure;Samples;Min_cycle;Max_cycle;Signal;HPM_P1;HPM_P2
2023/08/07 00:04:34;;;;;;;1.85;0.90;;;;;;;17.83;53.84;96783.75;10530204;28;20032;-29
2023/08/07 00:09:34;;;;;;;1.33;1.00;;;;;;;17.73;53.68;96781.22;10524423;28;20043;-28
2023/08/07 00:14:34;;;;;;;2.33;0.80;;;;;;;17.82;53.88;96786.31;10525584;28;20043;-28
2023/08/07 00:19:35;;;;;;;1.43;0.93;;;;;;;17.73;53.81;96791.34;10531591;28;20084;-28
2023/08/07 00:24:35;;;;;;;2.93;1.00;;;;;;;17.70;54.03;96782.03;10532318;28;20027;-28
2023/08/07 00:29:36;;;;;;;1.70;0.93;;;;;;;17.72;54.22;96782.03;10531615;28;20394;-28
2023/08/07 00:34:36;;;;;;;4.47;1.20;;;;;;;17.68;53.94;96782.88;10527612;28;20702;-28
2023/08/07 00:39:37;;;;;;;2.17;0.90;;;;;;;17.66;54.18;96787.09;10531822;28;20032;-28
2023/08/07 00:44:37;;;;;;;3.42;1.20;;;;;;;17.65;54.56;96790.47;10513307;28;20040;-29
2023/08/07 00:49:39;;;;;;;2.33;1.00;;;;;;;17.72;54.38;96790.47;10531130;28;20371;-28
2023/08/07 00:54:40;;;;;;;2.13;1.00;;;;;;;17.58;54.76;96781.13;10531457;28;20044;-28
2023/08/07 00:59:41;;;;;;;2.37;1.20;;;;;;;17.58;55.26;96773.53;10507674;28;20119;-29
2023/08/07 01:04:41;;;;;;;3.92;1.20;;;;;;;17.54;55.52;96779.41;10513264;28;20382;-29
2023/08/07 01:09:42;;;;;;;2.13;0.90;;;;;;;17.45;55.38;96780.22;10506151;28;20040;-28
2023/08/07 01:14:50;;;;;;;3.95;1.60;;;;;;;17.45;56.13;96794.56;10524981;28;20119;-28
2023/08/07 01:19:54;;;;;;;2.08;1.00;;;;;;;17.47;56.54;96782.75;10537956;28;20030;-28
2023/08/07 01:24:54;;;;;;;1.67;0.98;;;;;;;17.41;56.94;96781.03;10525135;28;20379;-28
2023/08/07 01:30:10;;;;;;;1.90;1.30;;;;;;;17.43;56.92;96786.13;10509800;28;20036;-28
2023/08/07 01:35:12;;;;;;;2.45;1.00;;;;;;;17.39;57.11;96779.34;10528618;28;20637;-28
2023/08/07 01:40:14;;;;;;;1.35;0.95;;;;;;;17.34;57.06;96779.28;10535663;28;20032;-28
2023/08/07 01:45:21;;;;;;;1.10;0.95;;;;;;;17.28;57.17;96771.69;10505963;28;20126;-28
2023/08/07 01:50:24;;;;;;;3.33;1.38;;;;;;;17.32;57.15;96787.72;10508328;28;20028;-28
2023/08/07 01:55:24;;;;;;;3.85;0.98;;;;;;;17.22;57.11;96793.53;10537028;28;20413;-28
2023/08/07 02:00:25;;;;;;;1.42;1.00;;;;;;;17.22;56.69;96785.97;10528947;28;20110;-29
2023/08/07 02:05:26;;;;;;;2.03;1.27;;;;;;;17.28;57.65;96796.13;10524804;28;20046;-29
2023/08/07 02:10:28;;;;;;;2.53;1.03;;;;;;;17.24;58.16;96792.72;10509225;28;20379;-28
2023/08/07 02:15:29;;;;;;;4.45;1.30;;;;;;;17.22;58.89;96789.34;10529444;28;20066;-29
2023/08/07 02:20:29;;;;;;;1.85;0.90;;;;;;;17.18;58.30;96800.31;10518892;28;20047;-28
2023/08/07 02:25:30;;;;;;;1.67;0.80;;;;;;;17.16;59.00;96796.06;10527540;28;20032;-28
2023/08/07 02:30:31;;;;;;;3.20;1.30;;;;;;;17.17;58.94;96797.75;10521464;28;20605;-28
2023/08/07 02:35:31;;;;;;;1.55;0.90;;;;;;;17.17;58.95;96802.81;10524202;28;20036;-28
2023/08/07 02:40:31;;;;;;;2.97;1.47;;;;;;;17.09;59.75;96799.38;10529154;28;20028;-28
2023/08/07 02:45:34;;;;;;;1.98;1.23;;;;;;;17.09;59.93;96804.44;10531407;28;20040;-29
2023/08/07 02:50:35;;;;;;;2.05;1.30;;;;;;;17.08;59.95;96797.69;10531131;28;20387;-29
2023/08/07 02:55:35;;;;;;;4.03;0.90;;;;;;;17.06;60.37;96804.44;10529016;28;20032;-28
2023/08/07 03:00:36;;;;;;;3.07;1.47;;;;;;;16.97;60.37;96791.69;10516303;28;20032;-28
2023/08/07 03:05:37;;;;;;;1.30;0.98;;;;;;;17.00;61.01;96805.22;10509061;28;20039;-28
2023/08/07 03:10:37;;;;;;;2.45;1.30;;;;;;;16.99;60.95;96802.69;10528900;28;20492;-29
2023/08/07 03:15:37;;;;;;;2.27;1.00;;;;;;;17.00;60.61;96807.75;10534188;28;20119;-28
2023/08/07 03:20:38;;;;;;;2.67;1.40;;;;;;;16.96;61.22;96807.72;10512275;28;20387;-29
2023/08/07 03:25:38;;;;;;;2.33;1.10;;;;;;;16.96;61.17;96808.56;10533782;28;20417;-28
2023/08/07 03:30:38;;;;;;;2.08;1.10;;;;;;;16.90;61.37;96803.47;10533390;28;20294;-29
2023/08/07 03:35:40;;;;;;;1.58;1.00;;;;;;;16.93;61.36;96812.75;10532648;28;20043;-28
2023/08/07 03:40:41;;;;;;;2.63;1.17;;;;;;;16.89;61.72;96803.47;10522680;28;20032;-28
2023/08/07 03:45:43;;;;;;;1.52;1.10;;;;;;;16.95;61.55;96806.00;10505668;28;20093;-28
2023/08/07 03:50:43;;;;;;;2.83;1.50;;;;;;;17.03;61.03;96804.38;10528960;28;20093;-29
2023/08/07 03:55:49;;;;;;;4.18;1.48;;;;;;;17.04;61.30;96806.09;10464860;28;20727;-28
2023/08/07 04:00:51;;;;;;;4.67;1.13;;;;;;;17.05;61.50;96805.25;10479126;28;20028;-28
2023/08/07 04:05:53;;;;;;;3.25;1.40;;;;;;;16.99;61.51;96802.69;10509438;28;20285;-28
2023/08/07 04:11:01;;;;;;;2.80;1.13;;;;;;;17.00;61.21;96804.38;10517021;28;20739;-28
2023/08/07 04:16:04;;;;;;;1.67;1.20;;;;;;;16.99;61.18;96811.09;10509084;28;20055;-28
2023/08/07 04:21:04;;;;;;;1.65;1.00;;;;;;;17.03;61.47;96804.38;10524393;28;20126;-28
2023/08/07 04:26:05;;;;;;;2.65;1.67;;;;;;;16.99;61.44;96815.34;10524054;28;20035;-27
2023/08/07 04:31:06;;;;;;;4.93;1.40;;;;;;;16.95;61.54;96809.41;10503026;28;20390;-28
2023/08/07 04:36:06;;;;;;;1.57;1.20;;;;;;;16.87;61.56;96807.63;10536906;28;20036;-28
2023/08/07 04:41:07;;;;;;;2.10;1.08;;;;;;;16.95;61.53;96816.13;10537254;28;20302;-28
2023/08/07 04:46:07;;;;;;;3.03;1.47;;;;;;;16.64;62.19;96823.47;10535866;28;20040;-28
2023/08/07 04:51:08;;;;;;;3.03;1.23;;;;;;;16.61;62.25;96824.28;10552243;28;20661;-29
2023/08/07 04:56:08;;;;;;;9.15;2.17;;;;;;;16.75;61.67;96828.63;10545247;28;20306;-29
2023/08/07 05:01:09;;;;;;;4.60;2.23;;;;;;;17.59;58.76;96828.41;10543286;28;20429;-28
2023/08/07 05:06:09;;;;;;;5.17;2.07;;;;;;;17.85;59.16;96829.34;10535223;28;20042;-28
2023/08/07 05:11:09;;;;;;;6.10;2.13;;;;;;;18.01;58.63;96833.66;10536654;28;20032;-28
2023/08/07 05:16:10;;;;;;;4.43;1.50;;;;;;;18.16;58.48;96833.69;10550459;28;20040;-29
2023/08/07 05:21:10;;;;;;;3.50;1.23;;;;;;;18.24;58.33;96827.81;10542007;28;20294;-28
2023/08/07 05:26:11;;;;;;;3.60;1.37;;;;;;;18.30;58.02;96827.00;10531008;28;20055;-28
2023/08/07 05:31:13;;;;;;;5.17;1.60;;;;;;;18.32;58.26;96827.88;10537921;28;20868;-31
2023/08/07 05:36:14;;;;;;;2.20;1.38;;;;;;;18.36;58.06;96843.09;10536680;28;20281;-28
2023/08/07 05:41:14;;;;;;;2.67;1.10;;;;;;;18.38;58.24;96850.66;10536620;28;20512;-29
2023/08/07 05:46:14;;;;;;;1.50;1.20;;;;;;;18.41;58.38;96841.38;10526753;28;20560;-28
2023/08/07 05:51:15;;;;;;;2.63;1.33;;;;;;;18.49;58.17;96846.50;10533006;28;20051;-28
2023/08/07 05:56:16;;;;;;;3.20;1.70;;;;;;;18.63;57.28;96854.94;10536165;28;20539;-28
2023/08/07 06:01:17;;;;;;;1.35;0.90;;;;;;;18.62;57.84;96850.72;10532839;28;20552;-28
2023/08/07 06:06:18;;;;;;;1.73;1.00;;;;;;;18.57;58.09;96862.56;10529299;28;20423;-28
2023/08/07 06:11:19;;;;;;;2.53;1.40;;;;;;;18.56;58.03;96866.78;10539249;28;20038;-29
2023/08/07 06:16:19;;;;;;;3.87;1.00;;;;;;;18.59;58.12;96876.09;10536601;28;20032;-28
2023/08/07 06:21:22;;;;;;;2.33;1.00;;;;;;;18.54;58.06;96867.59;10525397;28;20032;-29
2023/08/07 06:26:22;;;;;;;1.30;1.10;;;;;;;18.58;58.21;96869.31;10534158;28;20540;-28
2023/08/07 06:31:23;;;;;;;1.23;1.03;;;;;;;18.68;57.89;96876.09;10533521;28;20036;-28
2023/08/07 06:36:23;;;;;;;1.63;1.13;;;;;;;18.69;57.75;96878.66;10531574;28;20032;-28
2023/08/07 06:41:23;;;;;;;1.07;0.90;;;;;;;18.70;57.53;96884.56;10533441;28;20033;-28
2023/08/07 06:46:26;;;;;;;1.37;1.27;;;;;;;18.71;57.72;96891.31;10525904;28;20042;-28
2023/08/07 06:51:26;;;;;;;1.42;0.77;;;;;;;18.79;57.57;96894.72;10525796;28;20024;-27
2023/08/07 06:56:27;;;;;;;5.93;1.60;;;;;;;18.89;56.80;96896.41;10535555;28;20409;-28
2023/08/07 07:01:29;;;;;;;1.53;1.07;;;;;;;18.90;56.90;96893.03;10534204;28;20375;-29
2023/08/07 07:06:29;;;;;;;1.50;0.98;;;;;;;18.88;57.51;96892.19;10534943;28;20775;-28
2023/08/07 07:11:29;;;;;;;1.60;0.60;;;;;;;18.84;57.35;96893.03;10532081;28;20036;-28
2023/08/07 07:16:30;;;;;;;1.10;1.00;;;;;;;18.80;57.47;96897.25;10531614;28;20038;-28
2023/08/07 07:21:30;;;;;;;1.60;0.97;;;;;;;18.82;57.41;96909.94;10534351;28;20356;-28
2023/08/07 07:26:30;;;;;;;2.37;1.00;;;;;;;18.85;57.33;96913.31;10525428;28;20036;-28
2023/08/07 07:31:31;;;;;;;1.93;1.10;;;;;;;18.84;57.46;96924.31;10536668;28;20305;-29
2023/08/07 07:36:31;;;;;;;1.57;0.80;;;;;;;18.79;57.36;96915.00;10535576;28;20039;-28
2023/08/07 07:41:31;;;;;;;1.33;0.97;;;;;;;18.86;57.28;96921.78;10525319;28;20123;-28
2023/08/07 07:46:32;;;;;;;2.53;1.07;;;;;;;18.82;57.26;96925.16;10520606;28;20052;-29
2023/08/07 07:51:32;;;;;;;1.63;1.20;;;;;;;18.93;57.12;96919.25;10533993;28;20027;-29
2023/08/07 07:56:33;;;;;;;3.20;1.20;;;;;;;18.91;56.93;96915.88;10536279;28;20541;-28
2023/08/07 08:01:33;;;;;;;2.00;0.97;;;;;;;19.01;56.66;96926.88;10533501;28;20443;-28
2023/08/07 08:06:33;;;;;;;0.90;0.70;;;;;;;19.00;57.03;96935.34;10532594;28;20135;-29
2023/08/07 08:11:34;;;;;;;0.93;0.80;;;;;;;18.90;57.12;96939.56;10537208;28;20036;-29
2023/08/07 08:16:34;;;;;;;1.37;1.00;;;;;;;18.94;57.13;96958.16;10532015;28;20292;-28
2023/08/07 08:21:35;;;;;;;1.93;1.07;;;;;;;18.88;57.52;96955.59;10540637;28;20074;-29
2023/08/07 08:26:35;;;;;;;0.88;0.75;;;;;;;18.83;57.54;96957.31;10540259;28;20040;-28
2023/08/07 08:31:35;;;;;;;1.10;0.93;;;;;;;18.83;57.56;96960.66;10548124;28;20402;-29
2023/08/07 08:36:36;;;;;;;1.23;0.70;;;;;;;18.83;57.67;96962.38;10537674;28;20302;-29
2023/08/07 08:41:37;;;;;;;1.77;1.03;;;;;;;18.82;57.73;96960.69;10549754;28;20023;-28
2023/08/07 08:46:40;;;;;;;1.02;0.65;;;;;;;18.83;57.58;96978.44;10535431;28;20278;-28
2023/08/07 08:51:41;;;;;;;1.92;0.90;;;;;;;18.90;57.50;96981.81;10538078;28;20559;-29
2023/08/07 08:56:42;;;;;;;2.92;1.10;;;;;;;19.00;56.64;96976.78;10535109;28;20097;-28
2023/08/07 09:01:43;;;;;;;2.10;0.90;;;;;;;19.04;56.28;96982.69;10537346;28;20034;-29
2023/08/07 09:06:44;;;;;;;1.42;0.93;;;;;;;19.03;56.82;96991.16;10539026;28;20599;-28
2023/08/07 09:11:46;;;;;;;1.80;1.17;;;;;;;19.04;56.92;96992.84;10544839;28;20556;-28
2023/08/07 09:16:48;;;;;;;1.08;0.90;;;;;;;19.02;57.05;96974.25;10537259;28;20482;-28
2023/08/07 09:21:48;;;;;;;1.58;1.02;;;;;;;19.03;56.96;96986.94;10539189;28;20035;-28
2023/08/07 09:26:51;;;;;;;4.83;1.03;;;;;;;18.98;57.10;96975.06;10538610;28;20034;-29
2023/08/07 09:31:54;;;;;;;1.83;0.90;;;;;;;19.01;57.15;96985.25;10535703;28;20032;-28
2023/08/07 09:36:54;;;;;;;1.05;0.73;;;;;;;19.00;56.92;96979.31;10539059;28;20073;-29
2023/08/07 09:41:54;;;;;;;1.17;0.70;;;;;;;19.02;57.23;96974.25;10543552;28;20036;-29
2023/08/07 09:46:55;;;;;;;1.17;0.80;;;;;;;19.03;57.28;96989.50;10545502;28;20285;-30
2023/08/07 09:51:55;;;;;;;1.00;0.90;;;;;;;19.09;56.87;96979.31;10536597;28;20089;-29
2023/08/07 09:56:56;;;;;;;1.20;1.10;;;;;;;19.05;57.15;96969.16;10533630;28;20032;-28
2023/08/07 10:01:57;;;;;;;2.90;1.13;;;;;;;19.12;56.98;96981.03;10536779;28;20509;-28
2023/08/07 10:06:59;;;;;;;2.67;0.90;;;;;;;19.12;56.88;96988.63;10536682;28;20502;-28
2023/08/07 10:12:00;;;;;;;1.10;0.80;;;;;;;19.08;57.05;96986.97;10535710;28;20106;-28
2023/08/07 10:17:01;;;;;;;1.65;0.88;;;;;;;19.09;57.14;96993.72;10527402;28;20024;-28
2023/08/07 10:22:03;;;;;;;1.08;0.63;;;;;;;19.08;57.17;96997.09;10533797;28;20550;-28
2023/08/07 10:27:04;;;;;;;1.58;1.17;;;;;;;19.09;57.34;96998.81;10528441;28;20107;-29
2023/08/07 10:32:07;;;;;;;1.60;0.80;;;;;;;19.06;57.11;96991.16;10519269;28;20574;-28
2023/08/07 10:37:08;;;;;;;2.30;1.00;;;;;;;19.08;57.22;97005.56;10535432;28;20036;-29
2023/08/07 10:42:08;;;;;;;0.82;0.73;;;;;;;19.09;57.20;96998.81;10529659;28;20035;-27
2023/08/07 10:47:08;;;;;;;8.90;1.33;;;;;;;19.08;57.08;97004.72;10535297;28;20032;-28
2023/08/07 10:52:16;;;;;;;2.03;1.20;;;;;;;19.04;56.61;96998.78;10534793;28;20043;-28
2023/08/07 10:57:18;;;;;;;2.33;1.20;;;;;;;19.05;56.09;96995.41;10529667;28;20035;-28
2023/08/07 11:02:27;;;;;;;1.48;1.15;;;;;;;19.06;55.88;96991.16;10522279;28;20024;-28
2023/08/07 11:07:29;;;;;;;1.00;0.65;;;;;;;19.01;55.63;96993.69;10534082;28;20035;-29
2023/08/07 11:12:29;;;;;;;1.00;0.85;;;;;;;18.97;55.66;96986.06;10533537;28;20028;-28
2023/08/07 11:17:30;;;;;;;2.40;0.90;;;;;;;18.99;55.76;96994.56;10527750;28;20039;-27
2023/08/07 11:22:30;;;;;;;3.00;1.10;;;;;;;19.02;56.65;96999.63;10529415;28;20150;-28
2023/08/07 11:27:31;;;;;;;3.13;1.27;;;;;;;19.03;56.65;96981.00;10526362;28;20043;-28
2023/08/07 11:32:31;;;;;;;3.53;1.13;;;;;;;19.02;56.75;96984.41;10527571;28;20036;-27
2023/08/07 11:37:32;;;;;;;2.60;1.00;;;;;;;19.10;56.78;96996.25;10533375;28;20070;-29
2023/08/07 11:42:32;;;;;;;3.00;1.17;;;;;;;19.15;56.79;96981.88;10528236;28;20448;-28
2023/08/07 11:47:33;;;;;;;1.93;0.80;;;;;;;19.18;56.69;96986.94;10533184;28;20036;-29
2023/08/07 11:52:33;;;;;;;3.33;1.08;;;;;;;19.26;56.55;96989.56;10541046;28;20031;-28
2023/08/07 11:57:34;;;;;;;12.43;2.57;;;;;;;19.28;56.63;96975.16;10528424;28;20071;-28
2023/08/07 12:02:35;;;;;;;3.20;1.07;;;;;;;19.30;56.44;96986.16;10532342;28;20711;-28
2023/08/07 12:07:38;;;;;;;11.23;1.20;;;;;;;19.17;56.88;96982.72;10532196;28;20881;-28
2023/08/07 12:12:39;;;;;;;30.65;5.15;;;;;;;19.23;56.38;96975.16;10522026;28;20055;-28
2023/08/07 12:17:39;;;;;;;15.52;3.10;;;;;;;19.29;56.70;96975.16;10532007;28;20024;-28
2023/08/07 12:22:40;;;;;;;13.50;3.13;;;;;;;19.34;56.63;96972.63;10517843;28;20036;-28
2023/08/07 12:27:40;;;;;;;11.82;2.35;;;;;;;19.39;56.76;96965.84;10520790;28;20455;-28
2023/08/07 12:32:41;;;;;;;29.67;4.10;;;;;;;19.40;56.87;96972.63;10528191;28;20036;-29
2023/08/07 12:37:41;;;;;;;24.60;3.03;;;;;;;19.36;56.61;96965.84;10542575;28;20297;-28
2023/08/07 12:42:41;;;;;;;5.03;1.50;;;;;;;19.35;55.88;96974.31;10519770;28;20040;-28
2023/08/07 12:47:42;;;;;;;5.97;2.53;;;;;;;19.34;56.09;96967.56;10539201;28;20035;-28
2023/08/07 12:52:43;;;;;;;7.18;1.25;;;;;;;19.36;55.84;96969.25;10526960;28;20513;-28
2023/08/07 12:57:44;;;;;;;4.50;1.30;;;;;;;19.36;55.94;96963.31;10532899;28;20035;-28
2023/08/07 13:02:45;;;;;;;4.22;1.58;;;;;;;19.42;56.26;96963.34;10532207;28;20413;-29
2023/08/07 13:07:46;;;;;;;3.10;1.27;;;;;;;19.44;56.00;96966.72;10531647;28;20032;-29
2023/08/07 13:12:48;;;;;;;3.15;1.27;;;;;;;19.41;55.72;96962.47;10531659;28;20153;-28
2023/08/07 13:17:49;;;;;;;2.65;1.13;;;;;;;19.42;55.02;96965.88;10537084;28;20032;-28
2023/08/07 13:22:49;;;;;;;5.33;0.90;;;;;;;19.42;54.97;96964.16;10537638;28;20474;-29
2023/08/07 13:27:49;;;;;;;4.17;1.10;;;;;;;19.44;54.66;96964.16;10533804;28;20528;-27
2023/08/07 13:32:50;;;;;;;6.40;1.30;;;;;;;19.42;54.65;96976.03;10558129;28;20028;-28
2023/08/07 13:37:50;;;;;;;2.90;0.93;;;;;;;19.36;54.36;96970.94;10538122;28;20506;-28
2023/08/07 13:42:50;;;;;;;3.83;1.90;;;;;;;19.44;54.41;96979.41;10538786;28;20509;-27
2023/08/07 13:47:51;;;;;;;2.67;1.20;;;;;;;19.42;54.62;96981.09;10529217;28;20460;-28
2023/08/07 13:52:51;;;;;;;3.77;1.50;;;;;;;19.47;55.06;96985.34;10537582;28;20569;-28
2023/08/07 13:57:51;;;;;;;2.30;1.13;;;;;;;19.42;55.35;96976.03;10536997;28;20289;-28
2023/08/07 14:02:52;;;;;;;2.20;1.67;;;;;;;19.46;55.69;96980.25;10537251;28;20574;-28
2023/08/07 14:07:56;;;;;;;6.67;3.20;;;;;;;19.46;55.76;96982.78;10536436;28;20028;-28
2023/08/07 14:12:57;;;;;;;7.22;3.88;;;;;;;19.44;55.88;96997.19;10537076;28;20032;-28
2023/08/07 14:17:57;;;;;;;7.03;3.03;;;;;;;19.46;55.95;97003.09;10531273;28;20027;-28
2023/08/07 14:22:58;;;;;;;3.25;2.35;;;;;;;19.48;56.01;97021.72;10524132;28;20035;-29
2023/08/07 14:27:59;;;;;;;4.20;2.13;;;;;;;19.46;56.18;97014.13;10533386;28;20110;-27
2023/08/07 14:32:59;;;;;;;4.43;2.00;;;;;;;19.47;56.14;97025.97;10535497;28;20036;-28
2023/08/07 14:38:00;;;;;;;7.43;1.30;;;;;;;19.53;56.59;97027.66;10535000;28;20333;-27
2023/08/07 14:43:00;;;;;;;5.03;1.40;;;;;;;19.40;56.91;97020.84;10549600;28;20047;-29
2023/08/07 14:48:00;;;;;;;2.43;1.30;;;;;;;19.45;57.16;97011.56;10534411;28;20521;-28
2023/08/07 14:53:01;;;;;;;3.23;1.10;;;;;;;19.46;56.90;97008.19;10547329;28;20036;-28
2023/08/07 14:58:02;;;;;;;2.30;1.25;;;;;;;19.48;57.05;97012.41;10538650;28;20081;-28
2023/08/07 15:03:03;;;;;;;2.38;0.90;;;;;;;19.45;56.48;96998.88;10552354;28;20028;-28
2023/08/07 15:08:03;;;;;;;1.38;1.13;;;;;;;19.46;56.32;96998.03;10538250;28;20291;-28
2023/08/07 15:13:03;;;;;;;2.92;0.93;;;;;;;19.44;55.53;96998.00;10534015;28;20110;-28
2023/08/07 15:18:05;;;;;;;2.47;0.93;;;;;;;19.42;55.52;96991.25;10518814;28;20054;-28
2023/08/07 15:23:07;;;;;;;3.25;0.68;;;;;;;19.43;55.64;96988.69;10534151;28;20485;-28
2023/08/07 15:28:08;;;;;;;3.05;0.77;;;;;;;19.41;55.52;96985.31;10533752;28;20494;-28
2023/08/07 15:33:08;;;;;;;1.70;0.87;;;;;;;19.41;55.95;96984.50;10529899;28;20036;-28
2023/08/07 15:38:11;;;;;;;1.03;0.60;;;;;;;19.40;55.77;96987.84;10530118;28;20096;-28
2023/08/07 15:43:11;;;;;;;2.05;0.80;;;;;;;19.41;55.82;96994.66;10539920;28;20119;-28
2023/08/07 15:48:12;;;;;;;3.70;1.17;;;;;;;19.44;55.34;96989.56;10528758;28;20040;-28
2023/08/07 15:53:13;;;;;;;0.90;0.70;;;;;;;19.45;55.37;96993.78;10544366;28;20497;-28
2023/08/07 15:58:13;;;;;;;2.60;0.73;;;;;;;19.38;55.10;96994.63;10526736;28;20028;-28
2023/08/07 16:03:13;;;;;;;4.23;1.00;;;;;;;19.35;55.11;96995.47;10545346;28;20048;-28
2023/08/07 16:08:14;;;;;;;3.20;1.20;;;;;;;19.39;55.67;96996.31;10536601;28;20296;-28
2023/08/07 16:13:14;;;;;;;2.47;0.90;;;;;;;19.37;55.49;96993.81;10532306;28;20035;-28
2023/08/07 16:18:15;;;;;;;3.88;1.15;;;;;;;19.38;55.68;96990.41;10534491;28;20036;-28
2023/08/07 16:23:15;;;;;;;4.27;1.40;;;;;;;19.40;55.77;96992.94;10545894;28;20035;-28
2023/08/07 16:28:16;;;;;;;3.53;1.00;;;;;;;19.31;56.15;96995.47;10552534;28;20050;-29
2023/08/07 16:33:16;;;;;;;2.67;0.90;;;;;;;19.32;56.02;96990.41;10529039;28;20042;-28
2023/08/07 16:38:19;;;;;;;1.97;0.90;;;;;;;19.30;55.95;96996.31;10518760;28;20293;-29
2023/08/07 16:43:19;;;;;;;1.33;0.90;;;;;;;19.36;56.04;96986.16;10528977;28;20028;-28
2023/08/07 16:48:20;;;;;;;4.37;1.03;;;;;;;19.37;55.86;96987.84;10532334;28;20074;-28
2023/08/07 16:53:20;;;;;;;1.43;0.90;;;;;;;19.41;55.82;96984.50;10540361;28;20281;-28
2023/08/07 16:58:20;;;;;;;1.55;1.15;;;;;;;19.38;56.07;96984.47;10532247;28;20036;-29
2023/08/07 17:03:21;;;;;;;2.00;0.90;;;;;;;19.34;56.27;96995.50;10539282;28;20058;-29
2023/08/07 17:08:22;;;;;;;0.67;0.53;;;;;;;19.29;56.24;96997.16;10544539;28;20438;-28
2023/08/07 17:13:23;;;;;;;2.72;0.80;;;;;;;19.28;56.04;96992.94;10548961;28;20028;-28
2023/08/07 17:18:23;;;;;;;2.58;1.10;;;;;;;19.31;56.11;96990.38;10543525;28;20482;-28
2023/08/07 17:23:24;;;;;;;1.93;1.27;;;;;;;19.34;56.12;96981.09;10542047;28;20035;-28
2023/08/07 17:28:24;;;;;;;2.75;1.10;;;;;;;19.38;55.98;96985.34;10532509;28;20036;-28
2023/08/07 17:33:25;;;;;;;1.70;0.90;;;;;;;19.44;56.05;96997.19;10538912;28;20397;-28
2023/08/07 17:38:25;;;;;;;1.33;1.00;;;;;;;19.45;56.02;96991.25;10549887;28;20290;-28
2023/08/07 17:43:26;;;;;;;2.72;1.08;;;;;;;19.46;56.15;97008.19;10547861;28;20312;-29
2023/08/07 17:48:26;;;;;;;1.17;0.60;;;;;;;19.47;56.26;97004.78;10542851;28;20122;-28
2023/08/07 17:53:26;;;;;;;1.70;0.60;;;;;;;19.45;56.17;97006.50;10535980;28;20085;-28
2023/08/07 17:58:27;;;;;;;0.93;0.83;;;;;;;19.26;56.63;97007.31;10534158;28;20064;-29
2023/08/07 18:03:27;;;;;;;0.70;0.63;;;;;;;19.22;56.46;97018.28;10538917;28;20040;-29
2023/08/07 18:08:29;;;;;;;1.38;0.85;;;;;;;19.20;56.45;97007.31;10534696;28;20032;-28
2023/08/07 18:13:29;;;;;;;1.17;0.60;;;;;;;19.13;56.82;97008.09;10532754;28;20386;-28
2023/08/07 18:18:30;;;;;;;1.13;0.67;;;;;;;19.05;56.59;97008.09;10536269;28;20023;-29
2023/08/07 18:23:31;;;;;;;1.60;0.63;;;;;;;18.89;56.88;97000.41;10535055;28;20039;-28
2023/08/07 18:28:32;;;;;;;1.63;0.80;;;;;;;18.83;57.00;97008.88;10533233;28;21440;-28
2023/08/07 18:33:33;;;;;;;0.97;0.70;;;;;;;18.79;57.25;97008.84;10531799;28;20024;-28
2023/08/07 18:38:33;;;;;;;6.25;1.55;;;;;;;18.76;57.66;96986.84;10532695;28;20440;-28
2023/08/07 18:43:34;;;;;;;3.57;0.80;;;;;;;18.85;58.25;97011.41;10529922;28;20035;-28
2023/08/07 18:48:36;;;;;;;1.47;0.87;;;;;;;18.83;58.27;97008.88;10535172;28;20298;-29
2023/08/07 18:53:38;;;;;;;2.65;0.88;;;;;;;18.83;57.92;97002.97;10535488;28;20035;-30
2023/08/07 18:58:39;;;;;;;5.82;1.08;;;;;;;18.83;57.87;97013.09;10527244;28;20024;-28
2023/08/07 19:03:39;;;;;;;2.40;1.00;;;;;;;18.74;58.29;97013.09;10521704;28;20028;-29
2023/08/07 19:08:40;;;;;;;1.80;0.93;;;;;;;18.68;58.44;97025.72;10524303;28;20032;-28
2023/08/07 19:13:40;;;;;;;1.20;0.93;;;;;;;18.73;58.43;97024.03;10528407;28;20032;-29
2023/08/07 19:18:41;;;;;;;3.57;1.40;;;;;;;18.74;58.61;97013.09;10533038;28;20028;-30
2023/08/07 19:23:41;;;;;;;1.40;1.10;;;;;;;18.66;59.18;97007.13;10533050;28;20060;-28
2023/08/07 19:28:41;;;;;;;2.47;1.23;;;;;;;18.72;58.49;97019.81;10529483;28;20294;-28
2023/08/07 19:33:42;;;;;;;1.57;0.87;;;;;;;18.68;58.40;97013.06;10532734;28;20042;-28
2023/08/07 19:38:42;;;;;;;3.17;0.83;;;;;;;18.70;58.37;97024.03;10525524;28;20032;-28
2023/08/07 19:43:43;;;;;;;2.77;1.00;;;;;;;18.68;58.18;97023.19;10522057;28;20551;-28
2023/08/07 19:48:44;;;;;;;2.38;0.80;;;;;;;18.64;58.33;97021.47;10530764;28;20040;-29
2023/08/07 19:53:44;;;;;;;3.17;1.00;;;;;;;18.62;58.14;97020.63;10529215;28;20043;-29
2023/08/07 19:58:44;;;;;;;1.70;0.80;;;;;;;18.57;58.42;97015.53;10526905;28;20478;-28
2023/08/07 20:03:45;;;;;;;1.70;1.50;;;;;;;18.55;58.12;97026.50;10530322;28;20085;-29
2023/08/07 20:08:45;;;;;;;1.90;1.03;;;;;;;18.29;58.99;97020.44;10531155;28;20036;-28
2023/08/07 20:13:46;;;;;;;3.30;1.02;;;;;;;18.16;59.17;97032.19;10519721;28;20401;-29
2023/08/07 20:18:46;;;;;;;6.22;1.83;;;;;;;18.08;59.27;97038.88;10523340;28;20030;-28
2023/08/07 20:23:47;;;;;;;2.40;1.00;;;;;;;18.01;59.08;97044.75;10525564;28;20040;-28
2023/08/07 20:28:47;;;;;;;1.50;1.30;;;;;;;18.00;59.68;97039.69;10523802;28;20490;-29
2023/08/07 20:33:47;;;;;;;3.23;1.27;;;;;;;17.98;59.60;97034.59;10505267;28;20111;-28
2023/08/07 20:38:48;;;;;;;3.30;1.20;;;;;;;17.89;60.17;97036.22;10530964;28;20027;-29
2023/08/07 20:43:48;;;;;;;3.40;1.20;;;;;;;17.87;59.89;97035.34;10529477;28;20076;-28
2023/08/07 20:48:52;;;;;;;1.52;1.05;;;;;;;17.87;59.84;97035.34;10525277;28;20043;-28
2023/08/07 20:53:52;;;;;;;4.00;1.30;;;;;;;17.83;59.51;97037.00;10529383;28;20518;-28
2023/08/07 20:58:52;;;;;;;1.83;1.07;;;;;;;17.79;59.57;97042.91;10527569;28;20021;-28
2023/08/07 21:03:55;;;;;;;1.10;0.90;;;;;;;17.79;59.54;97030.25;10527522;28;20789;-28
2023/08/07 21:08:55;;;;;;;1.30;0.75;;;;;;;17.72;59.56;97023.44;10521561;28;20089;-27
2023/08/07 21:13:56;;;;;;;3.70;1.27;;;;;;;17.73;59.07;97021.75;10527154;28;20040;-28
2023/08/07 21:18:56;;;;;;;3.08;1.30;;;;;;;17.74;59.25;97026.00;10530289;28;20020;-28
2023/08/07 21:23:56;;;;;;;2.23;0.90;;;;;;;17.68;58.87;97020.88;10518818;28;20134;-29
2023/08/07 21:29:01;;;;;;;4.17;1.20;;;;;;;17.67;59.14;97020.00;10530110;28;20490;-30
2023/08/07 21:34:02;;;;;;;1.63;1.00;;;;;;;17.66;59.08;97017.47;10532031;28;20073;-28
2023/08/07 21:39:02;;;;;;;1.15;0.90;;;;;;;17.66;59.39;97020.00;10532715;28;20062;-29
2023/08/07 21:44:03;;;;;;;3.03;0.90;;;;;;;17.58;59.63;97008.97;10536436;28;20051;-36
2023/08/07 21:49:03;;;;;;;2.28;1.00;;;;;;;17.57;59.29;97007.28;10537741;28;20093;-29
2023/08/07 21:54:04;;;;;;;1.10;0.90;;;;;;;17.55;59.30;97004.72;10537719;28;20282;-30
2023/08/07 21:59:04;;;;;;;2.20;1.50;;;;;;;17.53;59.05;96992.88;10537346;28;20035;-28
2023/08/07 22:04:04;;;;;;;2.73;1.10;;;;;;;17.51;59.43;96992.03;10521910;28;20104;-28
2023/08/07 22:09:05;;;;;;;2.92;1.10;;;;;;;17.49;59.12;96993.72;10533080;28;20494;-29
2023/08/07 22:14:05;;;;;;;2.27;1.00;;;;;;;17.48;58.85;96982.72;10536922;28;20039;-29
2023/08/07 22:19:06;;;;;;;2.10;1.20;;;;;;;17.48;58.99;96976.84;10530952;28;20036;-29
2023/08/07 22:24:07;;;;;;;2.50;0.90;;;;;;;17.36;58.95;96966.59;10527865;28;20111;-28
2023/08/07 22:29:07;;;;;;;2.17;0.90;;;;;;;17.40;58.96;96968.34;10536568;28;20032;-28
2023/08/07 22:34:07;;;;;;;1.20;0.90;;;;;;;17.39;58.76;96964.94;10536092;28;20482;-29
2023/08/07 22:39:08;;;;;;;3.20;1.00;;;;;;;17.41;58.47;96958.19;10524653;28;20035;-28
2023/08/07 22:44:11;;;;;;;1.30;0.90;;;;;;;17.35;58.33;96959.81;10525052;28;20405;-28
2023/08/07 22:49:11;;;;;;;3.03;1.00;;;;;;;17.38;58.33;96964.91;10528556;28;20110;-28
2023/08/07 22:54:11;;;;;;;1.77;1.00;;;;;;;17.36;58.44;96967.47;10533058;28;20103;-28
2023/08/07 22:59:12;;;;;;;1.83;1.05;;;;;;;17.29;58.51;96965.69;10523671;28;20035;-28
2023/08/07 23:04:12;;;;;;;1.50;1.03;;;;;;;17.30;58.67;96958.91;10530358;28;20471;-29
2023/08/07 23:09:12;;;;;;;2.83;1.10;;;;;;;17.27;58.96;96956.38;10524217;28;20398;-28
2023/08/07 23:14:13;;;;;;;2.40;0.83;;;;;;;17.29;58.71;96959.75;10527497;28;20081;-28
2023/08/07 23:19:13;;;;;;;7.07;1.00;;;;;;;17.21;58.88;96951.25;10527709;28;20028;-28